Airfield :
LOGIN :

Register | Disclaimer

   EN    FR    IT 

 










Legend :    VFR   Marginal VFR   IFR   Intensive IFR   Very Intensive IFR
Visi :
Ceiling :
>= 8 km
>= 3000ft
5 to 8 km
1000 to 3000 ft
1500m to 5 km
500 to 1000 ft
800 to 1500m
200 to 500 ft
< 800m
< 200 ft
Symbols :   Thunderstorms  Fog  Heavy snow  Heavy precipitations  Wind > 20 kt
SIGMETs :     Misc.  Thunderstorms  Icing  Turbulence  Mountain Waves  Volcanic Ashes






- Airport Elevation : 1 ft


EGCK - Caernarfon

CURRENT METAR :
  • 250850Z 32005KT 9999 OVC009 16/13 Q1018

EXPIRED METARs :
  • 250820Z 32005KT 9999 OVC009 16/13 Q1018
  • 250750Z AUTO 31006KT 9999 OVC007/// 16/13 Q1018
  • 250720Z AUTO 27007KT 9999 OVC010/// 16/13 Q1018
  • 250650Z AUTO 25007KT 9999 OVC008/// 16/14 Q1018
  • 250620Z AUTO 26006KT 230V290 9999 OVC008/// 16/14 Q1017
  • 250550Z AUTO 03003KT 9999 OVC012/// 16/14 Q1017
  • 250520Z AUTO 01002KT 9999 OVC013/// 16/14 Q1017
  • 250450Z AUTO VRB01KT 9999 OVC013/// 15/14 Q1017
  • 250420Z AUTO 09003KT 9999 OVC014/// 15/14 Q1017

TAF TAF EGCK
Valid from the 25 at 09:00 until the 25 at 18:00 UTC


250802Z 2509/2518 VRB04KT 9999 SCT022
TEMPO 2509/2515 BKN010
PROB30
TEMPO 2509/2515 4000 BR BKN004



MET'MAP, your aeronautical weather chart ! - Copyright ORBIFLY December 2007 - Disclaimer

ORBIFLY MET'MAP TEAM :

Programming & Development : Alexandra Zaïnal
Original concept : Baudouin d'Aumeries
Technical & hardware support : Manuel Goepfert
Assistance : Marc-Olivier Méhu




SOURCES & CREDITS :

   NOAA